This is the latest recevied weather packets stored in our database for station/object SP6KBU-12. If no packets are shown the sender has not sent any weather packets the latest 10 day(s).
| Time | Temp. | Humidity | Pressure | Rain* | Wind** | Luminosity | Snow |
|---|---|---|---|---|---|---|---|
| 1787657042 | 17.78° C | 55% | 1020.6 hPa | - | - | - | - |
| 1787656175 | 16.67° C | 57% | 1020.7 hPa | - | - | - | - |
| 1787656142 | 16.67° C | 57% | 1020.7 hPa | - | - | - | - |
| 1787655242 | 16.67° C | 57% | 1020.8 hPa | - | - | - | - |
| 1787654341 | 16.67° C | 56% | 1020.8 hPa | - | - | - | - |
| 1787653441 | 17.22° C | 54% | 1020.6 hPa | - | - | - | - |
| 1787652541 | 18.33° C | 53% | 1020.7 hPa | - | - | - | - |
| 1787651641 | 17.78° C | 55% | 1020.8 hPa | - | - | - | - |
| 1787650740 | 17.78° C | 54% | 1021 hPa | - | - | - | - |
| 1787649840 | 17.78° C | 54% | 1021 hPa | - | - | - | - |
| 1787648940 | 17.78° C | 55% | 1021.1 hPa | - | - | - | - |
| 1787648040 | 18.33° C | 53% | 1021.1 hPa | - | - | - | - |
| 1787647140 | 19.44° C | 52% | 1021 hPa | - | - | - | - |
| 1787646239 | 16.67° C | 57% | 1021 hPa | - | - | - | - |
| 1787645339 | 17.78° C | 55% | 1021.1 hPa | - | - | - | - |
| 1787644438 | 19.44° C | 54% | 1020.9 hPa | - | - | - | - |
| 1787643538 | 18.33° C | 57% | 1020.9 hPa | - | - | - | - |
| 1787642637 | 17.78° C | 59% | 1020.8 hPa | - | - | - | - |
| 1787641737 | 15.56° C | 67% | 1020.9 hPa | - | - | - | - |
| 1787640837 | 15° C | 66% | 1020.7 hPa | - | - | - | - |
| 1787639979 | 13.33° C | 71% | 1020.6 hPa | - | - | - | - |
| 1787639937 | 13.33° C | 71% | 1020.6 hPa | - | - | - | - |
| 1787639036 | 12.22° C | 71% | 1020.7 hPa | - | - | - | - |
| 1787638136 | 12.22° C | 73% | 1020.5 hPa | - | - | - | - |
| 1787637236 | 11.67° C | 73% | 1020.7 hPa | - | - | - | - |
* Rain since midnight (hover to see other rain measurements)
** Current wind speed in m/s (hover to see current wind gust speed)